Time,TemperatureF,DewpointF,PressureIn,WindDirection,WindDirectionDegrees,WindSpeedMPH,WindSpeedGustMPH,Humidity,HourlyPrecipIn,Conditions,Clouds,dailyrainin,SoftwareType,DateUTC
2013-03-16 00:02:00,41.0,39.0,-100.00,East,100,1.0,3.0,93,0.55,,,-99.99,,2013-03-16 04:02:00,
2013-03-16 00:13:00,41.0,39.0,-100.00,ENE,65,3.0,4.0,93,0.00,,,-99.99,,2013-03-16 04:13:00,
2013-03-16 00:23:00,41.0,39.0,-100.00,East,85,1.0,4.0,93,0.00,,,-99.99,,2013-03-16 04:23:00,
2013-03-16 00:33:00,41.0,39.0,-100.00,NE,50,1.0,3.0,94,0.00,,,-99.99,,2013-03-16 04:33:00,
2013-03-16 00:43:00,41.0,39.0,-100.00,NE,50,2.0,4.0,93,0.00,,,-99.99,,2013-03-16 04:43:00,
2013-03-16 00:52:00,40.0,39.0,-100.00,NE,35,1.0,3.0,93,0.00,,,-99.99,,2013-03-16 04:52:00,
2013-03-16 01:02:00,41.0,39.0,-100.00,NE,45,0.0,3.0,94,0.00,,,-99.99,,2013-03-16 05:02:00,
2013-03-16 01:12:00,41.0,39.0,-100.00,WNW,285,0.0,2.0,94,0.00,,,-99.99,,2013-03-16 05:12:00,
2013-03-16 01:22:00,40.0,39.0,-100.00,WSW,240,0.0,4.0,93,0.00,,,-99.99,,2013-03-16 05:22:00,
2013-03-16 01:32:00,40.0,39.0,-100.00,SE,135,0.0,2.0,94,0.00,,,-99.99,,2013-03-16 05:32:00,
2013-03-16 01:42:00,40.0,39.0,-100.00,ENE,65,4.0,4.0,94,0.00,,,-99.99,,2013-03-16 05:42:00,
2013-03-16 01:52:00,40.0,39.0,-100.00,ENE,65,4.0,6.0,94,0.55,,,-99.99,,2013-03-16 05:52:00,
2013-03-16 02:02:00,40.0,39.0,-100.00,ENE,75,6.0,7.0,94,0.00,,,-99.99,,2013-03-16 06:02:00,
2013-03-16 02:12:00,40.0,39.0,-100.00,ENE,75,6.0,9.0,94,0.00,,,-99.99,,2013-03-16 06:12:00,
2013-03-16 02:22:00,40.0,39.0,-100.00,ENE,65,7.0,9.0,95,0.00,,,-99.99,,2013-03-16 06:22:00,
2013-03-16 02:32:00,40.0,39.0,-100.00,ENE,65,7.0,9.0,95,0.00,,,-99.99,,2013-03-16 06:32:00,
2013-03-16 02:42:00,40.0,39.0,-100.00,ENE,70,6.0,9.0,95,0.00,,,-99.99,,2013-03-16 06:42:00,
2013-03-16 02:52:00,41.0,39.0,-100.00,ENE,75,6.0,9.0,95,0.00,,,-99.99,,2013-03-16 06:52:00,
2013-03-16 03:02:00,41.0,39.0,-100.00,ENE,65,6.0,7.0,95,0.00,,,-99.99,,2013-03-16 07:02:00,
2013-03-16 03:12:00,40.0,39.0,-100.00,ENE,65,5.0,6.0,95,0.00,,,-99.99,,2013-03-16 07:12:00,
2013-03-16 03:22:00,40.0,39.0,-100.00,ENE,65,6.0,7.0,95,0.00,,,-99.99,,2013-03-16 07:22:00,
2013-03-16 03:32:00,40.0,39.0,-100.00,ENE,65,6.0,8.0,95,0.00,,,-99.99,,2013-03-16 07:32:00,
2013-03-16 03:42:00,41.0,39.0,-100.00,ENE,65,7.0,9.0,95,0.00,,,-99.99,,2013-03-16 07:42:00,
2013-03-16 03:52:00,40.0,39.0,-100.00,NE,55,6.0,8.0,95,0.00,,,-99.99,,2013-03-16 07:52:00,
2013-03-16 04:03:00,40.0,39.0,-100.00,ENE,65,7.0,9.0,95,0.00,,,-99.99,,2013-03-16 08:03:00,
2013-03-16 04:12:00,40.0,39.0,-100.00,NE,35,7.0,11.0,95,0.00,,,-99.99,,2013-03-16 08:12:00,
2013-03-16 04:23:00,39.0,38.0,-100.00,ENE,65,9.0,12.0,95,0.00,,,-99.99,,2013-03-16 08:23:00,
2013-03-16 04:32:00,38.0,37.0,-100.00,ENE,65,9.0,12.0,96,0.00,,,-99.99,,2013-03-16 08:32:00,
2013-03-16 04:42:00,38.0,37.0,-100.00,ENE,65,9.0,12.0,96,0.00,,,-99.99,,2013-03-16 08:42:00,
2013-03-16 04:52:00,38.0,37.0,-100.00,ENE,65,7.0,14.0,96,0.00,,,-99.99,,2013-03-16 08:52:00,
2013-03-16 05:02:00,37.0,37.0,-100.00,ENE,70,8.0,12.0,96,0.00,,,-99.99,,2013-03-16 09:02:00,
2013-03-16 05:12:00,37.0,36.0,-100.00,NE,50,4.0,9.0,97,0.00,,,-99.99,,2013-03-16 09:12:00,
2013-03-16 05:22:00,37.0,36.0,-100.00,ENE,65,7.0,11.0,97,0.00,,,-99.99,,2013-03-16 09:22:00,
2013-03-16 05:33:00,37.0,36.0,-100.00,ENE,60,6.0,9.0,97,0.00,,,-99.99,,2013-03-16 09:33:00,
2013-03-16 05:42:00,36.0,36.0,-100.00,NNE,25,8.0,12.0,97,0.55,,,-99.99,,2013-03-16 09:42:00,
2013-03-16 05:52:00,36.0,36.0,-100.00,ENE,65,9.0,14.0,97,0.55,,,-99.99,,2013-03-16 09:52:00,
2013-03-16 06:03:00,36.0,36.0,-100.00,East,80,12.0,16.0,97,0.55,,,-99.99,,2013-03-16 10:03:00,
2013-03-16 06:12:00,36.0,35.0,-100.00,East,80,11.0,16.0,97,0.55,,,-99.99,,2013-03-16 10:12:00,
2013-03-16 06:23:00,36.0,35.0,-100.00,East,85,16.0,19.0,97,0.55,,,-99.99,,2013-03-16 10:23:00,
2013-03-16 06:32:00,36.0,35.0,-100.00,East,85,17.0,21.0,97,0.55,,,-99.99,,2013-03-16 10:32:00,
2013-03-16 06:42:00,36.0,35.0,-100.00,East,90,16.0,19.0,97,0.55,,,-99.99,,2013-03-16 10:42:00,
2013-03-16 06:52:00,36.0,35.0,-100.00,ENE,75,14.0,19.0,97,0.55,,,-99.99,,2013-03-16 10:52:00,
2013-03-16 07:03:00,36.0,35.0,-100.00,ENE,70,12.0,18.0,97,0.55,,,-99.99,,2013-03-16 11:03:00,
2013-03-16 07:12:00,36.0,35.0,-100.00,ENE,65,8.0,16.0,97,0.55,,,-99.99,,2013-03-16 11:12:00,
2013-03-16 07:22:00,36.0,35.0,-100.00,ENE,65,6.0,12.0,97,0.55,,,-99.99,,2013-03-16 11:22:00,
2013-03-16 07:32:00,36.0,35.0,-100.00,ENE,65,9.0,12.0,97,0.55,,,-99.99,,2013-03-16 11:32:00,
2013-03-16 07:43:00,36.0,35.0,-100.00,ENE,65,7.0,13.0,97,0.55,,,-99.99,,2013-03-16 11:43:00,
2013-03-16 07:52:00,35.0,35.0,-100.00,ENE,65,10.0,15.0,97,0.55,,,-99.99,,2013-03-16 11:52:00,
2013-03-16 08:02:00,35.0,35.0,-100.00,ENE,65,10.0,16.0,97,0.55,,,-99.99,,2013-03-16 12:02:00,
2013-03-16 08:12:00,35.0,35.0,-100.00,ENE,70,8.0,14.0,97,0.55,,,-99.99,,2013-03-16 12:12:00,
2013-03-16 08:22:00,35.0,34.0,-100.00,ENE,75,12.0,16.0,97,0.55,,,-99.99,,2013-03-16 12:22:00,
2013-03-16 08:32:00,35.0,34.0,-100.00,ENE,70,9.0,13.0,97,0.55,,,-99.99,,2013-03-16 12:32:00,
2013-03-16 08:42:00,35.0,34.0,-100.00,ENE,65,12.0,14.0,97,0.55,,,-99.99,,2013-03-16 12:42:00,
2013-03-16 08:52:00,35.0,34.0,-100.00,ENE,75,12.0,17.0,97,0.00,,,-99.99,,2013-03-16 12:52:00,
2013-03-16 09:02:00,35.0,34.0,-100.00,ENE,65,7.0,12.0,97,0.00,,,-99.99,,2013-03-16 13:02:00,
2013-03-16 09:12:00,34.0,33.0,-100.00,ENE,65,8.0,11.0,97,0.00,,,-99.99,,2013-03-16 13:12:00,
2013-03-16 09:22:00,34.0,33.0,-100.00,ENE,60,10.0,16.0,97,0.00,,,-99.99,,2013-03-16 13:22:00,
2013-03-16 09:32:00,33.0,33.0,-100.00,NNE,30,10.0,14.0,97,0.00,,,-99.99,,2013-03-16 13:32:00,
2013-03-16 09:42:00,33.0,33.0,-100.00,NNE,30,9.0,14.0,97,0.00,,,-99.99,,2013-03-16 13:42:00,
2013-03-16 09:52:00,33.0,32.0,-100.00,ENE,60,8.0,12.0,97,0.00,,,-99.99,,2013-03-16 13:52:00,
2013-03-16 10:03:00,33.0,33.0,-100.00,NE,35,7.0,13.0,97,0.00,,,-99.99,,2013-03-16 14:03:00,
2013-03-16 10:12:00,33.0,32.0,-100.00,ENE,65,11.0,15.0,97,0.00,,,-99.99,,2013-03-16 14:12:00,
2013-03-16 10:22:00,33.0,33.0,-100.00,ENE,65,7.0,12.0,97,0.00,,,-99.99,,2013-03-16 14:22:00,
2013-03-16 10:32:00,33.0,33.0,-100.00,ENE,65,9.0,12.0,97,0.00,,,-99.99,,2013-03-16 14:32:00,
2013-03-16 10:42:00,33.0,33.0,-100.00,ENE,65,7.0,11.0,96,0.00,,,-99.99,,2013-03-16 14:42:00,
2013-03-16 10:52:00,34.0,33.0,-100.00,ENE,65,7.0,11.0,96,0.00,,,-99.99,,2013-03-16 14:52:00,
2013-03-16 11:03:00,34.0,33.0,-100.00,NE,35,9.0,12.0,96,0.00,,,-99.99,,2013-03-16 15:03:00,
2013-03-16 11:12:00,34.0,33.0,-100.00,NNE,25,9.0,14.0,96,0.00,,,-99.99,,2013-03-16 15:12:00,
2013-03-16 11:22:00,33.0,33.0,-100.00,NNE,30,9.0,12.0,96,0.00,,,-99.99,,2013-03-16 15:22:00,
2013-03-16 11:33:00,34.0,33.0,-100.00,NNE,30,7.0,12.0,96,0.00,,,-99.99,,2013-03-16 15:33:00,
2013-03-16 11:43:00,33.0,33.0,-100.00,NNE,20,11.0,16.0,96,0.00,,,-99.99,,2013-03-16 15:43:00,
2013-03-16 11:53:00,33.0,32.0,-100.00,North,5,12.0,16.0,96,0.00,,,-99.99,,2013-03-16 15:53:00,
2013-03-16 12:03:00,33.0,32.0,-100.00,NNE,20,13.0,17.0,96,0.00,,,-99.99,,2013-03-16 16:03:00,
2013-03-16 12:12:00,33.0,32.0,-100.00,NNE,15,10.0,16.0,95,0.00,,,-99.99,,2013-03-16 16:12:00,
2013-03-16 12:23:00,33.0,32.0,-100.00,NNE,25,7.0,15.0,95,0.00,,,-99.99,,2013-03-16 16:23:00,
2013-03-16 12:33:00,33.0,32.0,-100.00,NNE,20,12.0,16.0,94,0.00,,,-99.99,,2013-03-16 16:33:00,
2013-03-16 12:42:00,33.0,31.0,-100.00,NNE,15,9.0,16.0,94,0.00,,,-99.99,,2013-03-16 16:42:00,
2013-03-16 12:52:00,33.0,31.0,-100.00,NNE,15,12.0,16.0,94,0.00,,,-99.99,,2013-03-16 16:52:00,
2013-03-16 13:03:00,33.0,31.0,-100.00,NNE,25,11.0,18.0,93,0.00,,,-99.99,,2013-03-16 17:03:00,
2013-03-16 13:13:00,33.0,31.0,-100.00,NNE,20,9.0,14.0,93,0.00,,,-99.99,,2013-03-16 17:13:00,
2013-03-16 13:23:00,33.0,31.0,-100.00,North,0,9.0,15.0,93,0.00,,,-99.99,,2013-03-16 17:23:00,
2013-03-16 13:33:00,32.0,30.0,-100.00,NNE,20,12.0,16.0,92,0.00,,,-99.99,,2013-03-16 17:33:00,
2013-03-16 13:42:00,33.0,31.0,-100.00,NNE,15,9.0,17.0,92,0.00,,,-99.99,,2013-03-16 17:42:00,
2013-03-16 13:52:00,33.0,31.0,-100.00,North,10,9.0,14.0,92,0.00,,,-99.99,,2013-03-16 17:52:00,
2013-03-16 14:02:00,33.0,30.0,-100.00,NNE,20,12.0,16.0,91,0.00,,,-99.99,,2013-03-16 18:02:00,
2013-03-16 14:13:00,33.0,31.0,-100.00,North,10,9.0,15.0,90,0.00,,,-99.99,,2013-03-16 18:13:00,
2013-03-16 14:23:00,33.0,30.0,-100.00,NNE,15,9.0,14.0,90,0.00,,,-99.99,,2013-03-16 18:23:00,
2013-03-16 14:33:00,33.0,31.0,-100.00,NNE,25,9.0,14.0,89,0.00,,,-99.99,,2013-03-16 18:33:00,
2013-03-16 14:43:00,33.0,30.0,-100.00,NNE,20,9.0,12.0,89,0.00,,,-99.99,,2013-03-16 18:43:00,
2013-03-16 14:52:00,33.0,31.0,-100.00,NNE,30,7.0,13.0,89,0.00,,,-99.99,,2013-03-16 18:52:00,
2013-03-16 15:02:00,33.0,30.0,-100.00,NNE,15,9.0,12.0,89,0.00,,,-99.99,,2013-03-16 19:02:00,
2013-03-16 15:12:00,33.0,30.0,-100.00,North,5,6.0,12.0,88,0.00,,,-99.99,,2013-03-16 19:12:00,
2013-03-16 15:22:00,33.0,30.0,-100.00,NNE,25,7.0,11.0,88,0.00,,,-99.99,,2013-03-16 19:22:00,
2013-03-16 15:32:00,33.0,30.0,-100.00,North,5,7.0,11.0,88,0.00,,,-99.99,,2013-03-16 19:32:00,
2013-03-16 15:42:00,33.0,30.0,-100.00,North,10,7.0,11.0,88,0.00,,,-99.99,,2013-03-16 19:42:00,
2013-03-16 15:52:00,33.0,30.0,-100.00,NNE,20,8.0,12.0,88,0.00,,,-99.99,,2013-03-16 19:52:00,
2013-03-16 16:02:00,33.0,30.0,-100.00,North,10,9.0,12.0,87,0.00,,,-99.99,,2013-03-16 20:02:00,
2013-03-16 16:12:00,33.0,30.0,-100.00,North,0,8.0,12.0,88,0.00,,,-99.99,,2013-03-16 20:12:00,
2013-03-16 16:22:00,33.0,30.0,-100.00,North,5,6.0,12.0,88,0.00,,,-99.99,,2013-03-16 20:22:00,
2013-03-16 16:33:00,33.0,30.0,-100.00,North,5,6.0,12.0,87,0.00,,,-99.99,,2013-03-16 20:33:00,
2013-03-16 16:42:00,33.0,30.0,-100.00,NNE,15,7.0,9.0,87,0.00,,,-99.99,,2013-03-16 20:42:00,
2013-03-16 16:52:00,33.0,30.0,-100.00,NNE,20,9.0,11.0,87,0.00,,,-99.99,,2013-03-16 20:52:00,
2013-03-16 17:02:00,33.0,30.0,-100.00,North,5,7.0,11.0,86,0.00,,,-99.99,,2013-03-16 21:02:00,
2013-03-16 17:12:00,33.0,30.0,-100.00,North,10,7.0,11.0,85,0.00,,,-99.99,,2013-03-16 21:12:00,
2013-03-16 17:22:00,34.0,29.0,-100.00,North,0,6.0,10.0,84,0.00,,,-99.99,,2013-03-16 21:22:00,
2013-03-16 17:33:00,33.0,29.0,-100.00,North,355,8.0,14.0,83,0.00,,,-99.99,,2013-03-16 21:33:00,
2013-03-16 17:43:00,33.0,29.0,-100.00,North,355,7.0,12.0,82,0.00,,,-99.99,,2013-03-16 21:43:00,
2013-03-16 17:52:00,33.0,29.0,-100.00,North,350,7.0,9.0,83,0.00,,,-99.99,,2013-03-16 21:52:00,
2013-03-16 18:03:00,33.0,29.0,-100.00,North,5,6.0,9.0,82,0.00,,,-99.99,,2013-03-16 22:03:00,
2013-03-16 18:12:00,33.0,29.0,-100.00,North,350,6.0,9.0,82,0.00,,,-99.99,,2013-03-16 22:12:00,
2013-03-16 18:23:00,33.0,28.0,-100.00,North,0,6.0,9.0,81,0.00,,,-99.99,,2013-03-16 22:23:00,
2013-03-16 18:33:00,33.0,28.0,-100.00,North,10,4.0,9.0,81,0.00,,,-99.99,,2013-03-16 22:33:00,
2013-03-16 18:42:00,33.0,28.0,-100.00,North,355,6.0,9.0,80,0.00,,,-99.99,,2013-03-16 22:42:00,
2013-03-16 18:52:00,33.0,28.0,-100.00,North,355,6.0,9.0,80,0.00,,,-99.99,,2013-03-16 22:52:00,
2013-03-16 19:02:00,33.0,28.0,-100.00,NNW,345,6.0,9.0,80,0.00,,,-99.99,,2013-03-16 23:02:00,
2013-03-16 19:13:00,33.0,28.0,-100.00,North,355,6.0,9.0,79,0.00,,,-99.99,,2013-03-16 23:13:00,
2013-03-16 19:22:00,33.0,27.0,-100.00,North,355,6.0,9.0,79,0.00,,,-99.99,,2013-03-16 23:22:00,
2013-03-16 19:33:00,33.0,27.0,-100.00,North,10,6.0,8.0,78,0.00,,,-99.99,,2013-03-16 23:33:00,
2013-03-16 19:42:00,33.0,27.0,-100.00,North,0,4.0,6.0,79,0.00,,,-99.99,,2013-03-16 23:42:00,
2013-03-16 19:52:00,33.0,28.0,-100.00,NNW,340,4.0,6.0,80,0.00,,,-99.99,,2013-03-16 23:52:00,
2013-03-16 20:02:00,33.0,28.0,-100.00,North,350,2.0,6.0,80,0.00,,,-99.99,,2013-03-17 00:02:00,
2013-03-16 20:12:00,33.0,28.0,-100.00,North,350,2.0,6.0,80,0.00,,,-99.99,,2013-03-17 00:12:00,
2013-03-16 20:22:00,33.0,28.0,-100.00,North,350,1.0,6.0,80,0.00,,,-99.99,,2013-03-17 00:22:00,
2013-03-16 20:33:00,33.0,28.0,-100.00,NW,320,4.0,7.0,80,0.00,,,-99.99,,2013-03-17 00:33:00,
2013-03-16 20:42:00,33.0,28.0,-100.00,NNW,330,4.0,8.0,82,0.00,,,-99.99,,2013-03-17 00:42:00,
2013-03-16 20:52:00,33.0,28.0,-100.00,NW,325,5.0,9.0,82,0.00,,,-99.99,,2013-03-17 00:52:00,
2013-03-16 21:02:00,33.0,28.0,-100.00,NNW,340,5.0,7.0,81,0.00,,,-99.99,,2013-03-17 01:02:00,
2013-03-16 21:12:00,33.0,28.0,-100.00,NNW,345,3.0,7.0,82,0.00,,,-99.99,,2013-03-17 01:12:00,
2013-03-16 21:22:00,33.0,28.0,-100.00,North,350,3.0,6.0,82,0.00,,,-99.99,,2013-03-17 01:22:00,
2013-03-16 21:32:00,33.0,28.0,-100.00,North,0,2.0,4.0,82,0.00,,,-99.99,,2013-03-17 01:32:00,
2013-03-16 21:42:00,33.0,27.0,-100.00,NW,325,4.0,7.0,80,0.00,,,-99.99,,2013-03-17 01:42:00,
2013-03-16 21:52:00,33.0,27.0,-100.00,NNW,340,4.0,7.0,79,0.00,,,-99.99,,2013-03-17 01:52:00,
2013-03-16 22:03:00,33.0,27.0,-100.00,NNW,345,6.0,9.0,79,0.00,,,-99.99,,2013-03-17 02:03:00,
2013-03-16 22:13:00,32.0,26.0,-100.00,NNW,340,4.0,9.0,78,0.00,,,-99.99,,2013-03-17 02:13:00,
2013-03-16 22:22:00,32.0,26.0,-100.00,NNW,345,6.0,9.0,76,0.00,,,-99.99,,2013-03-17 02:22:00,
2013-03-16 22:33:00,32.0,26.0,-100.00,North,5,4.0,7.0,77,0.00,,,-99.99,,2013-03-17 02:33:00,
2013-03-16 22:43:00,32.0,26.0,-100.00,North,0,3.0,9.0,76,0.00,,,-99.99,,2013-03-17 02:43:00,
2013-03-16 22:52:00,32.0,26.0,-100.00,North,350,3.0,5.0,78,0.00,,,-99.99,,2013-03-17 02:52:00,
2013-03-16 23:03:00,32.0,26.0,-100.00,NNW,340,3.0,6.0,78,0.00,,,-99.99,,2013-03-17 03:03:00,
2013-03-16 23:12:00,32.0,26.0,-100.00,NNW,335,3.0,7.0,78,0.00,,,-99.99,,2013-03-17 03:12:00,
2013-03-16 23:22:00,32.0,26.0,-100.00,NNW,335,3.0,4.0,78,0.00,,,-99.99,,2013-03-17 03:22:00,
2013-03-16 23:34:00,32.0,26.0,-100.00,NNW,330,3.0,7.0,78,0.00,,,-99.99,,2013-03-17 03:34:00,
2013-03-16 23:43:00,32.0,26.0,-100.00,NW,320,4.0,6.0,77,0.00,,,-99.99,,2013-03-17 03:43:00,
2013-03-16 23:52:00,32.0,26.0,-100.00,NW,320,3.0,5.0,77,0.00,,,-99.99,,2013-03-17 03:52:00,